sensor_id;sensor_type;location;lat;lon;timestamp;pressure;altitude;pressure_sealevel;temperature;humidity
51986;BME280;38002;53.296;6.600;2022-08-20T00:03:40;101684.09;;;19.58;79.51
51986;BME280;38002;53.296;6.600;2022-08-20T00:08:41;101683.63;;;19.55;79.75
51986;BME280;38002;53.296;6.600;2022-08-20T00:13:50;101685.06;;;19.51;79.69
51986;BME280;38002;53.296;6.600;2022-08-20T00:18:50;101686.34;;;19.48;79.67
51986;BME280;38002;53.296;6.600;2022-08-20T00:23:53;101686.53;;;19.46;79.78
51986;BME280;38002;53.296;6.600;2022-08-20T00:28:54;101680.56;;;19.43;79.70
51986;BME280;38002;53.296;6.600;2022-08-20T00:33:54;101686.94;;;19.43;79.78
51986;BME280;38002;53.296;6.600;2022-08-20T00:38:55;101688.19;;;19.41;80.01
51986;BME280;38002;53.296;6.600;2022-08-20T00:49:07;101683.88;;;19.38;79.97
51986;BME280;38002;53.296;6.600;2022-08-20T00:54:26;101689.63;;;19.37;80.38
51986;BME280;38002;53.296;6.600;2022-08-20T00:59:30;101677.94;;;19.35;80.00
51986;BME280;38002;53.296;6.600;2022-08-20T01:04:33;101678.34;;;19.32;80.30
51986;BME280;38002;53.296;6.600;2022-08-20T01:09:35;101674.28;;;19.28;80.11
51986;BME280;38002;53.296;6.600;2022-08-20T01:14:36;101672.97;;;19.24;80.49
51986;BME280;38002;53.296;6.600;2022-08-20T01:19:43;101674.59;;;19.18;80.26
51986;BME280;38002;53.296;6.600;2022-08-20T01:24:46;101677.97;;;19.14;80.52
51986;BME280;38002;53.296;6.600;2022-08-20T01:29:50;101678.72;;;19.08;80.49
51986;BME280;38002;53.296;6.600;2022-08-20T01:34:50;101690.34;;;19.03;80.56
51986;BME280;38002;53.296;6.600;2022-08-20T01:39:51;101681.19;;;18.96;80.47
51986;BME280;38002;53.296;6.600;2022-08-20T01:44:52;101682.81;;;18.90;80.81
51986;BME280;38002;53.296;6.600;2022-08-20T01:49:55;101685.50;;;18.84;80.68
51986;BME280;38002;53.296;6.600;2022-08-20T01:54:58;101690.94;;;18.77;80.77
51986;BME280;38002;53.296;6.600;2022-08-20T01:59:58;101693.63;;;18.71;80.61
51986;BME280;38002;53.296;6.600;2022-08-20T02:04:59;101687.38;;;18.62;80.72
51986;BME280;38002;53.296;6.600;2022-08-20T02:10:00;101690.28;;;18.54;80.64
51986;BME280;38002;53.296;6.600;2022-08-20T02:15:00;101690.81;;;18.49;80.45
51986;BME280;38002;53.296;6.600;2022-08-20T02:20:06;101701.72;;;18.43;80.75
51986;BME280;38002;53.296;6.600;2022-08-20T02:25:10;101693.22;;;18.38;81.00
51986;BME280;38002;53.296;6.600;2022-08-20T02:30:16;101707.75;;;18.32;81.00
51986;BME280;38002;53.296;6.600;2022-08-20T02:35:19;101702.34;;;18.24;80.88
51986;BME280;38002;53.296;6.600;2022-08-20T02:40:21;101707.97;;;18.16;81.03
51986;BME280;38002;53.296;6.600;2022-08-20T02:45:22;101707.00;;;18.08;80.89
51986;BME280;38002;53.296;6.600;2022-08-20T02:50:23;101705.03;;;18.02;80.89
51986;BME280;38002;53.296;6.600;2022-08-20T02:55:25;101697.34;;;17.98;80.92
51986;BME280;38002;53.296;6.600;2022-08-20T03:00:27;101712.69;;;17.92;80.65
51986;BME280;38002;53.296;6.600;2022-08-20T03:05:29;101713.66;;;17.85;80.26
51986;BME280;38002;53.296;6.600;2022-08-20T03:10:32;101711.00;;;17.77;80.12
51986;BME280;38002;53.296;6.600;2022-08-20T03:15:33;101716.38;;;17.70;80.30
51986;BME280;38002;53.296;6.600;2022-08-20T03:20:33;101717.16;;;17.64;79.74
51986;BME280;38002;53.296;6.600;2022-08-20T03:25:35;101711.50;;;17.57;79.88
51986;BME280;38002;53.296;6.600;2022-08-20T03:30:35;101719.44;;;17.52;79.87
51986;BME280;38002;53.296;6.600;2022-08-20T03:35:36;101730.81;;;17.49;79.53
51986;BME280;38002;53.296;6.600;2022-08-20T03:40:37;101720.75;;;17.42;79.53
51986;BME280;38002;53.296;6.600;2022-08-20T03:45:40;101719.59;;;17.36;79.53
51986;BME280;38002;53.296;6.600;2022-08-20T03:50:43;101727.53;;;17.31;79.49
51986;BME280;38002;53.296;6.600;2022-08-20T03:55:46;101733.81;;;17.25;79.46
51986;BME280;38002;53.296;6.600;2022-08-20T04:00:49;101746.00;;;17.22;79.54
51986;BME280;38002;53.296;6.600;2022-08-20T04:05:50;101744.00;;;17.16;79.54
51986;BME280;38002;53.296;6.600;2022-08-20T04:10:51;101739.41;;;17.09;79.30
51986;BME280;38002;53.296;6.600;2022-08-20T04:15:52;101732.94;;;17.02;79.41
51986;BME280;38002;53.296;6.600;2022-08-20T04:20:54;101742.47;;;16.91;79.17
51986;BME280;38002;53.296;6.600;2022-08-20T04:25:55;101750.94;;;16.82;79.25
51986;BME280;38002;53.296;6.600;2022-08-20T04:30:58;101748.25;;;16.73;79.47
51986;BME280;38002;53.296;6.600;2022-08-20T04:35:59;101744.16;;;16.61;79.34
51986;BME280;38002;53.296;6.600;2022-08-20T04:41:01;101753.66;;;16.51;79.48
51986;BME280;38002;53.296;6.600;2022-08-20T04:46:05;101764.69;;;16.43;79.61
51986;BME280;38002;53.296;6.600;2022-08-20T04:51:08;101767.25;;;16.36;79.67
51986;BME280;38002;53.296;6.600;2022-08-20T04:56:08;101764.38;;;16.29;79.76
51986;BME280;38002;53.296;6.600;2022-08-20T05:01:10;101764.06;;;16.24;79.95
51986;BME280;38002;53.296;6.600;2022-08-20T05:06:10;101764.75;;;16.26;80.03
51986;BME280;38002;53.296;6.600;2022-08-20T05:11:11;101771.44;;;16.24;80.08
51986;BME280;38002;53.296;6.600;2022-08-20T05:16:13;101783.63;;;16.21;80.02
51986;BME280;38002;53.296;6.600;2022-08-20T05:21:15;101772.47;;;16.15;80.02
51986;BME280;38002;53.296;6.600;2022-08-20T05:26:16;101777.97;;;16.15;79.96
51986;BME280;38002;53.296;6.600;2022-08-20T05:31:19;101799.44;;;16.11;79.92
51986;BME280;38002;53.296;6.600;2022-08-20T05:36:19;101799.94;;;16.07;80.07
51986;BME280;38002;53.296;6.600;2022-08-20T05:41:21;101792.94;;;16.04;80.22
51986;BME280;38002;53.296;6.600;2022-08-20T05:46:21;101797.06;;;16.00;80.33
51986;BME280;38002;53.296;6.600;2022-08-20T05:51:22;101801.84;;;15.98;80.24
51986;BME280;38002;53.296;6.600;2022-08-20T05:56:22;101809.22;;;15.98;80.43
51986;BME280;38002;53.296;6.600;2022-08-20T06:01:23;101804.59;;;15.98;80.27
51986;BME280;38002;53.296;6.600;2022-08-20T06:06:23;101813.69;;;15.99;80.33
51986;BME280;38002;53.296;6.600;2022-08-20T06:11:24;101817.78;;;16.03;80.61
51986;BME280;38002;53.296;6.600;2022-08-20T06:16:24;101813.31;;;16.10;80.29
51986;BME280;38002;53.296;6.600;2022-08-20T06:21:25;101818.81;;;16.18;80.18
51986;BME280;38002;53.296;6.600;2022-08-20T06:26:26;101806.22;;;16.31;80.05
51986;BME280;38002;53.296;6.600;2022-08-20T06:31:26;101804.47;;;16.47;79.91
51986;BME280;38002;53.296;6.600;2022-08-20T06:36:27;101803.56;;;16.62;79.82
51986;BME280;38002;53.296;6.600;2022-08-20T06:41:27;101804.34;;;16.79;79.74
51986;BME280;38002;53.296;6.600;2022-08-20T06:46:28;101804.28;;;16.95;79.26
51986;BME280;38002;53.296;6.600;2022-08-20T06:51:29;101814.28;;;17.11;79.40
51986;BME280;38002;53.296;6.600;2022-08-20T06:56:30;101804.41;;;17.24;79.02
51986;BME280;38002;53.296;6.600;2022-08-20T07:01:30;101797.06;;;17.40;78.85
51986;BME280;38002;53.296;6.600;2022-08-20T07:06:32;101800.06;;;17.53;78.59
51986;BME280;38002;53.296;6.600;2022-08-20T07:11:32;101814.56;;;17.69;78.09
51986;BME280;38002;53.296;6.600;2022-08-20T07:16:34;101818.22;;;17.85;76.48
51986;BME280;38002;53.296;6.600;2022-08-20T07:21:35;101804.41;;;18.07;76.94
51986;BME280;38002;53.296;6.600;2022-08-20T07:26:35;101814.66;;;18.28;76.08
51986;BME280;38002;53.296;6.600;2022-08-20T07:31:36;101827.28;;;18.52;75.85
51986;BME280;38002;53.296;6.600;2022-08-20T07:36:58;101832.72;;;18.75;75.13
51986;BME280;38002;53.296;6.600;2022-08-20T07:41:59;101821.75;;;18.96;74.37
51986;BME280;38002;53.296;6.600;2022-08-20T07:47:02;101837.28;;;19.18;73.49
51986;BME280;38002;53.296;6.600;2022-08-20T07:52:04;101841.78;;;19.19;73.23
51986;BME280;38002;53.296;6.600;2022-08-20T07:57:05;101851.47;;;19.15;73.14
51986;BME280;38002;53.296;6.600;2022-08-20T08:02:06;101851.53;;;19.22;72.58
51986;BME280;38002;53.296;6.600;2022-08-20T08:07:06;101857.22;;;19.35;72.22
51986;BME280;38002;53.296;6.600;2022-08-20T08:12:07;101854.59;;;19.63;71.92
51986;BME280;38002;53.296;6.600;2022-08-20T08:17:08;101854.88;;;19.96;71.26
51986;BME280;38002;53.296;6.600;2022-08-20T08:22:11;101856.59;;;20.24;70.76
51986;BME280;38002;53.296;6.600;2022-08-20T08:27:13;101844.50;;;20.53;70.14
51986;BME280;38002;53.296;6.600;2022-08-20T08:32:15;101841.41;;;20.76;69.07
51986;BME280;38002;53.296;6.600;2022-08-20T08:37:16;101842.81;;;21.00;68.75
51986;BME280;38002;53.296;6.600;2022-08-20T08:42:50;101842.09;;;21.32;64.38
51986;BME280;38002;53.296;6.600;2022-08-20T08:47:54;101848.97;;;21.62;67.48
51986;BME280;38002;53.296;6.600;2022-08-20T08:52:57;101847.34;;;21.94;67.33
51986;BME280;38002;53.296;6.600;2022-08-20T08:58:01;101846.03;;;22.36;65.92
51986;BME280;38002;53.296;6.600;2022-08-20T09:03:06;101848.53;;;22.77;64.71
51986;BME280;38002;53.296;6.600;2022-08-20T09:08:09;101863.84;;;22.86;64.28
51986;BME280;38002;53.296;6.600;2022-08-20T09:13:12;101866.88;;;22.58;64.62
51986;BME280;38002;53.296;6.600;2022-08-20T09:18:12;101867.09;;;22.63;64.60
51986;BME280;38002;53.296;6.600;2022-08-20T09:23:13;101866.53;;;23.06;63.99
51986;BME280;38002;53.296;6.600;2022-08-20T09:28:13;101875.34;;;23.34;62.87
51986;BME280;38002;53.296;6.600;2022-08-20T09:33:14;101879.50;;;23.25;62.14
51986;BME280;38002;53.296;6.600;2022-08-20T09:38:15;101875.09;;;23.56;61.69
51986;BME280;38002;53.296;6.600;2022-08-20T09:43:15;101878.56;;;24.07;61.07
51986;BME280;38002;53.296;6.600;2022-08-20T09:48:16;101877.72;;;24.31;59.86
51986;BME280;38002;53.296;6.600;2022-08-20T09:53:18;101883.50;;;24.55;59.34
51986;BME280;38002;53.296;6.600;2022-08-20T10:03:31;101875.78;;;25.11;57.82
51986;BME280;38002;53.296;6.600;2022-08-20T10:08:31;101873.31;;;25.51;57.64
51986;BME280;38002;53.296;6.600;2022-08-20T10:13:32;101876.38;;;25.80;56.78
51986;BME280;38002;53.296;6.600;2022-08-20T10:18:33;101882.00;;;25.61;56.24
51986;BME280;38002;53.296;6.600;2022-08-20T10:23:34;101887.44;;;25.38;55.90
51986;BME280;38002;53.296;6.600;2022-08-20T10:28:35;101891.50;;;25.06;55.77
51986;BME280;38002;53.296;6.600;2022-08-20T10:33:37;101893.22;;;24.64;55.99
51986;BME280;38002;53.296;6.600;2022-08-20T10:38:38;101898.94;;;24.26;55.94
51986;BME280;38002;53.296;6.600;2022-08-20T10:43:38;101896.78;;;23.96;56.54
51986;BME280;38002;53.296;6.600;2022-08-20T10:48:39;101906.56;;;23.74;56.62
51986;BME280;38002;53.296;6.600;2022-08-20T10:53:39;101899.63;;;23.59;56.41
51986;BME280;38002;53.296;6.600;2022-08-20T10:58:40;101898.56;;;23.60;56.95
51986;BME280;38002;53.296;6.600;2022-08-20T11:03:40;101902.50;;;23.77;56.56
51986;BME280;38002;53.296;6.600;2022-08-20T11:08:41;101901.09;;;24.49;55.92
51986;BME280;38002;53.296;6.600;2022-08-20T11:13:41;101905.34;;;25.12;54.66
51986;BME280;38002;53.296;6.600;2022-08-20T11:18:41;101897.53;;;25.69;53.48
51986;BME280;38002;53.296;6.600;2022-08-20T11:23:42;101896.13;;;25.90;52.58
51986;BME280;38002;53.296;6.600;2022-08-20T11:28:42;101903.91;;;25.58;52.17
51986;BME280;38002;53.296;6.600;2022-08-20T11:33:43;101914.31;;;25.14;52.24
51986;BME280;38002;53.296;6.600;2022-08-20T11:38:43;101910.53;;;25.09;52.46
51986;BME280;38002;53.296;6.600;2022-08-20T11:43:43;101911.22;;;25.22;52.76
51986;BME280;38002;53.296;6.600;2022-08-20T11:48:44;101896.88;;;25.55;51.90
51986;BME280;38002;53.296;6.600;2022-08-20T11:53:45;101881.69;;;25.81;51.37
51986;BME280;38002;53.296;6.600;2022-08-20T11:58:45;101883.78;;;25.86;50.70
51986;BME280;38002;53.296;6.600;2022-08-20T12:03:46;101890.28;;;25.50;50.57
51986;BME280;38002;53.296;6.600;2022-08-20T12:08:47;101886.91;;;25.29;50.84
51986;BME280;38002;53.296;6.600;2022-08-20T12:13:47;101887.44;;;25.38;50.65
51986;BME280;38002;53.296;6.600;2022-08-20T12:18:47;101895.34;;;25.41;50.27
51986;BME280;38002;53.296;6.600;2022-08-20T12:23:48;101898.75;;;26.14;50.15
51986;BME280;38002;53.296;6.600;2022-08-20T12:28:48;101899.38;;;27.09;49.01
51986;BME280;38002;53.296;6.600;2022-08-20T12:33:49;101912.63;;;27.02;47.82
51986;BME280;38002;53.296;6.600;2022-08-20T12:38:49;101905.63;;;26.53;48.19
51986;BME280;38002;53.296;6.600;2022-08-20T12:43:50;101900.56;;;26.09;47.93
51986;BME280;38002;53.296;6.600;2022-08-20T12:48:51;101903.94;;;25.99;48.21
51986;BME280;38002;53.296;6.600;2022-08-20T12:53:52;101905.56;;;26.18;47.69
51986;BME280;38002;53.296;6.600;2022-08-20T12:58:52;101909.13;;;25.96;47.29
51986;BME280;38002;53.296;6.600;2022-08-20T13:03:53;101897.53;;;25.69;47.42
51986;BME280;38002;53.296;6.600;2022-08-20T13:08:53;101894.22;;;25.42;47.56
51986;BME280;38002;53.296;6.600;2022-08-20T13:13:54;101902.06;;;25.15;47.67
51986;BME280;38002;53.296;6.600;2022-08-20T13:18:54;101887.56;;;24.95;47.71
51986;BME280;38002;53.296;6.600;2022-08-20T13:23:55;101890.19;;;24.90;47.66
51986;BME280;38002;53.296;6.600;2022-08-20T13:28:55;101884.81;;;25.25;47.54
51986;BME280;38002;53.296;6.600;2022-08-20T13:33:55;101884.72;;;25.50;47.13
51986;BME280;38002;53.296;6.600;2022-08-20T13:38:56;101883.88;;;25.49;46.76
51986;BME280;38002;53.296;6.600;2022-08-20T13:43:56;101871.94;;;25.42;46.54
51986;BME280;38002;53.296;6.600;2022-08-20T13:48:57;101879.38;;;25.48;46.06
51986;BME280;38002;53.296;6.600;2022-08-20T13:53:57;101870.53;;;25.69;45.98
51986;BME280;38002;53.296;6.600;2022-08-20T13:58:58;101869.53;;;26.05;45.35
51986;BME280;38002;53.296;6.600;2022-08-20T14:03:58;101866.59;;;26.00;45.29
51986;BME280;38002;53.296;6.600;2022-08-20T14:08:58;101873.78;;;25.66;45.43
51986;BME280;38002;53.296;6.600;2022-08-20T14:13:59;101860.91;;;25.36;45.53
51986;BME280;38002;53.296;6.600;2022-08-20T14:18:59;101867.38;;;25.18;45.66
51986;BME280;38002;53.296;6.600;2022-08-20T14:24:00;101857.81;;;25.44;45.45
51986;BME280;38002;53.296;6.600;2022-08-20T14:29:02;101862.31;;;25.86;44.93
51986;BME280;38002;53.296;6.600;2022-08-20T14:34:02;101866.97;;;26.15;44.39
51986;BME280;38002;53.296;6.600;2022-08-20T14:39:03;101865.03;;;26.04;44.57
51986;BME280;38002;53.296;6.600;2022-08-20T14:44:03;101855.38;;;25.77;44.48
51986;BME280;38002;53.296;6.600;2022-08-20T14:49:04;101860.09;;;25.47;44.70
51986;BME280;38002;53.296;6.600;2022-08-20T14:54:04;101856.38;;;25.53;44.73
51986;BME280;38002;53.296;6.600;2022-08-20T14:59:05;101859.72;;;25.61;44.94
51986;BME280;38002;53.296;6.600;2022-08-20T15:04:05;101851.75;;;25.47;45.15
51986;BME280;38002;53.296;6.600;2022-08-20T15:09:06;101853.81;;;25.21;44.66
51986;BME280;38002;53.296;6.600;2022-08-20T15:14:07;101869.56;;;24.98;45.09
51986;BME280;38002;53.296;6.600;2022-08-20T15:19:07;101871.94;;;24.94;45.11
51986;BME280;38002;53.296;6.600;2022-08-20T15:24:08;101874.34;;;24.91;45.23
51986;BME280;38002;53.296;6.600;2022-08-20T15:29:08;101863.41;;;25.07;45.15
51986;BME280;38002;53.296;6.600;2022-08-20T15:34:09;101866.47;;;25.06;45.06
51986;BME280;38002;53.296;6.600;2022-08-20T15:39:09;101860.03;;;25.05;44.92
51986;BME280;38002;53.296;6.600;2022-08-20T15:44:09;101867.69;;;24.92;45.07
51986;BME280;38002;53.296;6.600;2022-08-20T15:49:11;101866.75;;;24.79;45.29
51986;BME280;38002;53.296;6.600;2022-08-20T15:54:22;101855.97;;;24.65;46.34
51986;BME280;38002;53.296;6.600;2022-08-20T16:15:30;101875.72;;;23.89;48.55
51986;BME280;38002;53.296;6.600;2022-08-20T16:20:39;101873.28;;;23.68;48.98
51986;BME280;38002;53.296;6.600;2022-08-20T16:26:03;101864.66;;;23.51;49.60
51986;BME280;38002;53.296;6.600;2022-08-20T16:31:11;101867.47;;;23.38;49.73
51986;BME280;38002;53.296;6.600;2022-08-20T16:36:31;101876.00;;;23.36;51.15
51986;BME280;38002;53.296;6.600;2022-08-20T16:46:52;101868.81;;;23.67;51.98
51986;BME280;38002;53.296;6.600;2022-08-20T16:51:54;101874.28;;;23.80;50.75
51986;BME280;38002;53.296;6.600;2022-08-20T16:57:01;101881.69;;;23.86;51.34
51986;BME280;38002;53.296;6.600;2022-08-20T17:02:06;101877.44;;;23.83;50.86
51986;BME280;38002;53.296;6.600;2022-08-20T17:07:06;101875.44;;;23.66;51.26
51986;BME280;38002;53.296;6.600;2022-08-20T17:12:22;101878.94;;;23.48;53.21
51986;BME280;38002;53.296;6.600;2022-08-20T17:17:29;101881.16;;;23.33;52.29
51986;BME280;38002;53.296;6.600;2022-08-20T17:22:39;101877.00;;;23.04;53.58
51986;BME280;38002;53.296;6.600;2022-08-20T17:27:40;101880.72;;;22.85;53.20
51986;BME280;38002;53.296;6.600;2022-08-20T17:33:17;101876.47;;;22.62;55.31
51986;BME280;38002;53.296;6.600;2022-08-20T17:38:36;101878.63;;;22.47;55.07
51986;BME280;38002;53.296;6.600;2022-08-20T17:43:37;101873.53;;;22.38;54.74
51986;BME280;38002;53.296;6.600;2022-08-20T17:48:42;101877.16;;;22.32;54.81
51986;BME280;38002;53.296;6.600;2022-08-20T17:53:49;101883.78;;;22.24;55.12
51986;BME280;38002;53.296;6.600;2022-08-20T17:59:02;101874.59;;;22.10;55.41
51986;BME280;38002;53.296;6.600;2022-08-20T18:04:03;101873.75;;;21.97;55.70
51986;BME280;38002;53.296;6.600;2022-08-20T18:15:19;101879.88;;;21.72;57.23
51986;BME280;38002;53.296;6.600;2022-08-20T18:26:12;101892.59;;;21.47;57.38
51986;BME280;38002;53.296;6.600;2022-08-20T18:31:49;101898.72;;;21.36;57.95
51986;BME280;38002;53.296;6.600;2022-08-20T18:36:56;101892.94;;;21.24;57.42
51986;BME280;38002;53.296;6.600;2022-08-20T18:42:03;101896.47;;;21.12;57.37
51986;BME280;38002;53.296;6.600;2022-08-20T18:47:16;101906.00;;;20.96;57.99
51986;BME280;38002;53.296;6.600;2022-08-20T18:52:23;101909.28;;;20.78;58.62
51986;BME280;38002;53.296;6.600;2022-08-20T18:57:27;101908.78;;;20.68;58.56
51986;BME280;38002;53.296;6.600;2022-08-20T19:02:34;101904.69;;;20.58;59.35
51986;BME280;38002;53.296;6.600;2022-08-20T19:07:40;101917.34;;;20.46;59.17
51986;BME280;38002;53.296;6.600;2022-08-20T19:18:24;101911.13;;;20.16;60.30
51986;BME280;38002;53.296;6.600;2022-08-20T19:23:28;101905.03;;;19.99;59.88
51986;BME280;38002;53.296;6.600;2022-08-20T19:28:39;101913.13;;;19.79;60.21
51986;BME280;38002;53.296;6.600;2022-08-20T19:33:41;101921.63;;;19.63;60.60
51986;BME280;38002;53.296;6.600;2022-08-20T19:38:51;101914.88;;;19.44;61.21
51986;BME280;38002;53.296;6.600;2022-08-20T19:43:52;101911.63;;;19.26;61.40
51986;BME280;38002;53.296;6.600;2022-08-20T19:54:19;101921.97;;;18.88;63.31
51986;BME280;38002;53.296;6.600;2022-08-20T19:59:20;101911.31;;;18.71;62.46
51986;BME280;38002;53.296;6.600;2022-08-20T20:04:21;101907.88;;;18.54;62.93
51986;BME280;38002;53.296;6.600;2022-08-20T20:09:27;101911.63;;;18.38;63.71
51986;BME280;38002;53.296;6.600;2022-08-20T20:14:34;101908.84;;;18.24;63.81
51986;BME280;38002;53.296;6.600;2022-08-20T20:19:51;101903.50;;;18.07;65.60
51986;BME280;38002;53.296;6.600;2022-08-20T20:25:17;101907.72;;;17.95;66.09
51986;BME280;38002;53.296;6.600;2022-08-20T20:30:30;101903.03;;;17.81;65.98
51986;BME280;38002;53.296;6.600;2022-08-20T20:35:33;101898.16;;;17.68;64.85
51986;BME280;38002;53.296;6.600;2022-08-20T20:40:47;101894.78;;;17.58;66.07
51986;BME280;38002;53.296;6.600;2022-08-20T20:45:58;101895.47;;;17.52;66.55
51986;BME280;38002;53.296;6.600;2022-08-20T20:50:58;101904.25;;;17.48;66.21
51986;BME280;38002;53.296;6.600;2022-08-20T20:55:59;101896.75;;;17.42;66.37
51986;BME280;38002;53.296;6.600;2022-08-20T21:01:00;101890.06;;;17.36;66.48
51986;BME280;38002;53.296;6.600;2022-08-20T21:06:00;101883.59;;;17.29;66.60
51986;BME280;38002;53.296;6.600;2022-08-20T21:11:01;101874.53;;;17.20;67.06
51986;BME280;38002;53.296;6.600;2022-08-20T21:16:02;101878.00;;;17.14;67.36
51986;BME280;38002;53.296;6.600;2022-08-20T21:21:03;101868.56;;;17.09;67.77
51986;BME280;38002;53.296;6.600;2022-08-20T21:26:05;101869.97;;;17.05;67.91
51986;BME280;38002;53.296;6.600;2022-08-20T21:31:06;101870.72;;;16.99;68.29
51986;BME280;38002;53.296;6.600;2022-08-20T21:36:07;101871.41;;;16.93;68.71
51986;BME280;38002;53.296;6.600;2022-08-20T21:41:07;101864.06;;;16.85;68.74
51986;BME280;38002;53.296;6.600;2022-08-20T21:46:09;101873.69;;;16.81;68.94
51986;BME280;38002;53.296;6.600;2022-08-20T21:51:10;101875.75;;;16.79;69.05
51986;BME280;38002;53.296;6.600;2022-08-20T21:56:11;101873.22;;;16.77;69.52
51986;BME280;38002;53.296;6.600;2022-08-20T22:01:13;101869.59;;;16.77;69.64
51986;BME280;38002;53.296;6.600;2022-08-20T22:06:13;101869.75;;;16.75;69.77
51986;BME280;38002;53.296;6.600;2022-08-20T22:11:14;101868.25;;;16.73;69.89
51986;BME280;38002;53.296;6.600;2022-08-20T22:16:18;101862.06;;;16.71;70.10
51986;BME280;38002;53.296;6.600;2022-08-20T22:21:24;101859.84;;;16.66;70.07
51986;BME280;38002;53.296;6.600;2022-08-20T22:26:25;101855.25;;;16.59;70.28
51986;BME280;38002;53.296;6.600;2022-08-20T22:31:29;101863.31;;;16.52;70.39
51986;BME280;38002;53.296;6.600;2022-08-20T22:36:31;101860.56;;;16.44;70.70
51986;BME280;38002;53.296;6.600;2022-08-20T22:41:32;101857.69;;;16.38;70.68
51986;BME280;38002;53.296;6.600;2022-08-20T22:46:37;101852.03;;;16.31;70.78
51986;BME280;38002;53.296;6.600;2022-08-20T22:51:40;101855.31;;;16.26;70.99
51986;BME280;38002;53.296;6.600;2022-08-20T22:56:41;101856.66;;;16.22;71.11
51986;BME280;38002;53.296;6.600;2022-08-20T23:01:42;101857.03;;;16.19;71.01
51986;BME280;38002;53.296;6.600;2022-08-20T23:06:42;101863.75;;;16.17;71.20
51986;BME280;38002;53.296;6.600;2022-08-20T23:11:43;101848.81;;;16.11;71.31
51986;BME280;38002;53.296;6.600;2022-08-20T23:16:45;101853.97;;;16.06;71.53
51986;BME280;38002;53.296;6.600;2022-08-20T23:21:47;101855.69;;;15.99;71.56
51986;BME280;38002;53.296;6.600;2022-08-20T23:26:48;101844.72;;;15.91;71.76
51986;BME280;38002;53.296;6.600;2022-08-20T23:31:49;101849.19;;;15.84;71.77
51986;BME280;38002;53.296;6.600;2022-08-20T23:36:50;101845.41;;;15.77;71.88
51986;BME280;38002;53.296;6.600;2022-08-20T23:41:51;101847.66;;;15.65;75.02
51986;BME280;38002;53.296;6.600;2022-08-20T23:46:57;101843.34;;;15.63;71.99
51986;BME280;38002;53.296;6.600;2022-08-20T23:51:58;101841.47;;;15.55;72.20
51986;BME280;38002;53.296;6.600;2022-08-20T23:56:59;101851.38;;;15.48;72.22
